Dodge City Regional Airport
KDDC : now visible

Airfield :











YOU CAN JOIN US ON...

 
LOGIN :

Register | Disclaimer

   EN    FR    IT 

 









Legend :    VFR   Marginal VFR   IFR   Intensive IFR   Very Intensive IFR
Visi :
Ceiling :
>= 8 km
>= 3000ft
5 to 8 km
1000 to 3000 ft
1500m to 5 km
500 to 1000 ft
800 to 1500m
200 to 500 ft
< 800m
< 200 ft
Symbols :   Thunderstorms  Fog  Heavy snow  Heavy precipitations  Wind > 20 kt






- Airport Elevation : 2594 ft
- IATA code : DDC


KDDC - Dodge City Regional

CURRENT METAR :
  • 281844Z AUTO 30039G52KT 1/2SM -RA OVC025 11/03 A2968 RMK AO2 PK WND 30054/1813 RAE05B42 P0000 T01060028

EXPIRED METARs :
  • 281828Z AUTO 30036G48KT 1 1/4SM HZ OVC025 11/03 A2967 RMK AO2 PK WND 30054/1813 VIS 3/4V2 1/2 RAE05 P0000 T01060028
  • 281807Z AUTO 30034G49KT 1 1/2SM HZ FEW006 BKN026 09/03 A2965 RMK AO2 PK WND 31049/1753 VIS 1V2 1/2 RAE05 P0000 T00940028
  • 281752Z AUTO 30036G50KT 3/4SM -RA FEW004 BKN024 09/02 A2965 RMK AO2 PK WND 30058/1729 RAB1656E06B14 SLP034 P0000 60000 T00940022 10100 20044 53015
  • 281733Z AUTO 30040G58KT 1/2SM -RA FEW001 OVC024 09/02 A2964 RMK AO2 PK WND 30058/1729 RAB1656E06B14 P0000 T00940022
  • 281719Z AUTO 30041G55KT 1/4SM -RA FEW002 BKN024 09/02 A2962 RMK AO2 PK WND 29057/1708 RAB1656E06B14 P0000 T00940022
  • 281659Z AUTO 29037G51KT 3/4SM -RA FEW002 BKN025 09/03 A2963 RMK AO2 PK WND 29049/1653 VIS 1/2V4 RAB56 P0000 T00940028
  • 281647Z AUTO 29036G49KT 2 1/2SM HZ FEW014 SCT025 BKN032 09/03 A2962 RMK AO2 PK WND 29052/1629 VIS 1 1/2V4
  • 281640Z AUTO 29037G49KT 3SM HZ BKN029 BKN034 10/03 A2962 RMK AO2 PK WND 29052/1629 T01000028
  • 281619Z AUTO 29034G49KT 1 3/4SM HZ OVC030 09/02 A2961 RMK AO2 PK WND 27049/1611 VIS 1/2V5 T00890022
  • 281601Z AUTO 28034G45KT 10SM OVC029 08/02 A2961 RMK AO2 PK WND 27045/1600 T00830022
  • 281552Z AUTO 28030G43KT 10SM OVC031 09/02 A2961 RMK AO2 PK WND 27045/1504 SLP024 T00890022

TAF KDDC
Valid from the 28 at 18:00 until the 29 at 18:00 UTC


281735Z 2818/2918 30043G55KT 1/2SM BLDU BKN023
FM282100 31036G46KT P6SM BKN030
FM282200 32032G40KT P6SM BKN045
FM290000 33024G34KT P6SM SCT100
FM290100 32017G25KT P6SM SCT120
FM290200 30012KT P6SM FEW250



MET'MAP, your aeronautical weather chart ! - Copyright ORBIFLY December 2007 - Disclaimer

ORBIFLY MET'MAP TEAM :

Programming & Development : Alexandra Zaïnal
Concept & original design : Baudouin d'Aumeries
Assistance for programming : Marc-Olivier Méhu
Technical & hardware support : Manuel Goepfert

Contact : metmap@orbifly.com




SOURCES & CREDITS :

   NOAA       Earth
Advisory